Misterton, United Kingdom
Current Conditions -  °F | °C
As of 7:20 PM on Saturday 25 Oct 2014 (Local Time) from EGCN Reporting Station
Broken Clouds Broken Clouds  
Wind Chill: 13°   Ceiling: 4500
Heat Index: 13°   Visibility: 6mi
Dew Point: 10°   Wind: 10mph
Humidity: 82%   Direction: 210°SSW
Pressure: 30"   Gusts: NA
Location:  53.45°N, 0.85°W
Report Text: EGCN 251820Z 21009KT 9999 BKN045 13/10 Q1016
Loading
Personal Weather Stations






























Interactive Weather Map
Tropical Storm Tracking
New forecast layout! Learn more

10-Day Weather Forecast

Advertisements
Track Severe Weather on mobile